createdAt,value
2018-09-04T00:00:15.063Z,997.8
2018-09-04T00:03:15.034Z,997.8
2018-09-04T00:06:15.701Z,997.8
2018-09-04T00:09:15.785Z,997.8
2018-09-04T00:12:15.524Z,997.8
2018-09-04T00:15:15.406Z,997.8
2018-09-04T00:18:15.578Z,997.7
2018-09-04T00:21:15.172Z,997.7
2018-09-04T00:24:16.008Z,997.7
2018-09-04T00:27:15.717Z,997.6
2018-09-04T00:30:15.477Z,997.6
2018-09-04T00:33:15.444Z,997.6
2018-09-04T00:36:15.161Z,997.6
2018-09-04T00:39:15.160Z,997.5
2018-09-04T00:42:15.098Z,997.6
2018-09-04T00:45:15.936Z,997.6
2018-09-04T00:48:14.949Z,997.6
2018-09-04T00:51:15.830Z,997.6
2018-09-04T00:54:15.685Z,997.6
2018-09-04T00:57:15.689Z,997.6
2018-09-04T01:00:15.420Z,997.6
2018-09-04T01:03:15.126Z,997.6
2018-09-04T01:06:15.844Z,997.7
2018-09-04T01:09:15.728Z,997.7
2018-09-04T01:12:15.642Z,997.6
2018-09-04T01:15:15.626Z,997.6
2018-09-04T01:18:15.650Z,997.7
2018-09-04T01:21:15.060Z,997.7
2018-09-04T01:24:15.760Z,997.7
2018-09-04T01:27:15.767Z,997.8
2018-09-04T01:30:15.628Z,997.8
2018-09-04T01:33:15.018Z,997.7
2018-09-04T01:36:15.773Z,997.7
2018-09-04T01:39:15.472Z,997.6
2018-09-04T01:42:15.130Z,997.6
2018-09-04T01:45:15.921Z,997.7
2018-09-04T01:48:15.836Z,997.7
2018-09-04T01:51:15.689Z,997.7
2018-09-04T01:54:15.335Z,997.7
2018-09-04T01:57:15.000Z,997.6
2018-09-04T02:00:15.619Z,997.6
2018-09-04T02:03:15.376Z,997.6
2018-09-04T02:06:15.419Z,997.6
2018-09-04T02:09:15.261Z,997.6
2018-09-04T02:12:15.679Z,997.6
2018-09-04T02:15:15.632Z,997.7
2018-09-04T02:18:15.651Z,997.6
2018-09-04T02:21:15.418Z,997.7
2018-09-04T02:24:15.403Z,997.7
2018-09-04T02:27:15.412Z,997.7
2018-09-04T02:30:15.095Z,997.7
2018-09-04T02:33:15.748Z,997.7
2018-09-04T02:36:15.759Z,997.7
2018-09-04T02:39:14.946Z,997.7
2018-09-04T02:42:15.819Z,997.7
2018-09-04T02:45:15.417Z,997.7
2018-09-04T02:48:15.327Z,997.7
2018-09-04T02:51:15.274Z,997.7
2018-09-04T02:54:15.194Z,997.7
2018-09-04T02:57:15.031Z,997.7
2018-09-04T03:00:15.845Z,997.7
2018-09-04T03:03:15.597Z,997.7
2018-09-04T03:06:15.232Z,997.7
2018-09-04T03:09:15.842Z,997.7
2018-09-04T03:12:15.732Z,997.7
2018-09-04T03:15:15.623Z,997.7
2018-09-04T03:18:15.565Z,997.7
2018-09-04T03:21:15.456Z,997.7
2018-09-04T03:24:15.292Z,997.7
2018-09-04T03:27:15.145Z,997.7
2018-09-04T03:30:15.950Z,997.6
2018-09-04T03:33:15.717Z,997.6
2018-09-04T03:36:15.517Z,997.6
2018-09-04T03:39:15.752Z,997.6
2018-09-04T03:42:15.810Z,997.6
2018-09-04T03:45:15.875Z,997.7
2018-09-04T03:48:15.720Z,997.7
2018-09-04T03:51:15.630Z,997.7
2018-09-04T03:54:15.590Z,997.8
2018-09-04T03:57:15.396Z,997.7
2018-09-04T04:00:15.335Z,997.7
2018-09-04T04:03:15.866Z,997.7
2018-09-04T04:06:15.640Z,997.8
2018-09-04T04:09:15.568Z,997.8
2018-09-04T04:12:15.451Z,997.8
2018-09-04T04:15:15.288Z,997.8
2018-09-04T04:18:15.029Z,997.8
2018-09-04T04:21:15.588Z,997.8
2018-09-04T04:24:15.733Z,997.9
2018-09-04T04:27:15.791Z,997.9
2018-09-04T04:30:15.452Z,997.9
2018-09-04T04:33:15.394Z,997.9
2018-09-04T04:36:15.396Z,997.9
2018-09-04T04:39:15.371Z,997.9
2018-09-04T04:42:15.257Z,997.9
2018-09-04T04:45:15.118Z,998.0
2018-09-04T04:48:16.119Z,998.0
2018-09-04T04:51:15.198Z,998.1
2018-09-04T04:54:15.950Z,998.0
2018-09-04T04:57:15.920Z,998.0
2018-09-04T05:00:16.057Z,998.0
2018-09-04T05:03:15.030Z,998.1
2018-09-04T05:06:15.272Z,998.0
2018-09-04T05:09:15.331Z,998.1
2018-09-04T05:12:15.577Z,998.1
2018-09-04T05:15:15.714Z,998.2
2018-09-04T05:18:15.592Z,998.3
2018-09-04T05:21:15.514Z,998.3
2018-09-04T05:24:15.175Z,998.3
2018-09-04T05:27:14.979Z,998.3
2018-09-04T05:30:15.699Z,998.3
2018-09-04T05:33:15.693Z,998.3
2018-09-04T05:36:15.087Z,998.4
2018-09-04T05:39:15.879Z,998.3
2018-09-04T05:42:15.856Z,998.3
2018-09-04T05:45:14.979Z,998.4
2018-09-04T05:48:15.277Z,998.5
2018-09-04T05:51:15.961Z,998.5
2018-09-04T05:54:15.872Z,998.5
2018-09-04T05:57:15.861Z,998.5
2018-09-04T06:00:15.747Z,998.5
2018-09-04T06:03:15.241Z,998.6
2018-09-04T06:06:15.190Z,998.5
2018-09-04T06:09:15.827Z,998.5
2018-09-04T06:12:15.602Z,998.5
2018-09-04T06:15:15.295Z,998.5
2018-09-04T06:18:15.329Z,998.5
2018-09-04T06:21:15.172Z,998.5
2018-09-04T06:24:15.146Z,998.6
2018-09-04T06:27:15.080Z,998.6
2018-09-04T06:30:15.855Z,998.5
2018-09-04T06:33:15.650Z,998.5
2018-09-04T06:36:15.707Z,998.5
2018-09-04T06:39:15.696Z,998.5
2018-09-04T06:42:15.347Z,998.5
2018-09-04T06:45:15.062Z,998.5
2018-09-04T06:48:15.977Z,998.5
2018-09-04T06:51:15.774Z,998.5
2018-09-04T06:54:15.729Z,998.5
2018-09-04T06:57:15.558Z,998.5
2018-09-04T07:00:15.511Z,998.5
2018-09-04T07:03:15.502Z,998.5
2018-09-04T07:06:15.575Z,998.5
2018-09-04T07:09:15.353Z,998.5
2018-09-04T07:12:15.346Z,998.5
2018-09-04T07:15:15.043Z,998.6
2018-09-04T07:18:15.636Z,998.6
2018-09-04T07:21:15.585Z,998.6
2018-09-04T07:24:15.490Z,998.6
2018-09-04T07:27:15.395Z,998.7
2018-09-04T07:30:15.475Z,998.6
2018-09-04T07:33:15.207Z,998.5
2018-09-04T07:36:15.171Z,998.5
2018-09-04T07:39:15.152Z,998.5
2018-09-04T07:42:15.817Z,998.5
2018-09-04T07:45:15.754Z,998.5
2018-09-04T07:48:15.711Z,998.5
2018-09-04T07:51:15.536Z,998.5
2018-09-04T07:54:15.508Z,998.6
2018-09-04T07:57:15.363Z,998.5
2018-09-04T08:00:15.263Z,998.4
2018-09-04T08:03:15.313Z,998.6
2018-09-04T08:06:15.526Z,998.5
2018-09-04T08:09:15.598Z,998.5
2018-09-04T08:12:15.658Z,998.5
2018-09-04T08:15:15.584Z,998.5
2018-09-04T08:18:16.049Z,998.6
2018-09-04T08:21:15.860Z,998.6
2018-09-04T08:24:15.150Z,998.5
2018-09-04T08:27:15.931Z,998.4
2018-09-04T08:30:15.748Z,998.4
2018-09-04T08:33:15.291Z,998.4
2018-09-04T08:36:14.971Z,998.4
2018-09-04T08:39:15.611Z,998.4
2018-09-04T08:42:15.109Z,998.4
2018-09-04T08:45:15.483Z,998.4
2018-09-04T08:48:15.219Z,998.5
2018-09-04T08:51:15.984Z,998.4
2018-09-04T08:54:15.454Z,998.4
2018-09-04T08:57:15.211Z,998.4
2018-09-04T09:00:15.901Z,998.4
2018-09-04T09:03:15.504Z,998.3
2018-09-04T09:06:15.615Z,998.4
2018-09-04T09:09:15.243Z,998.4
2018-09-04T09:12:15.872Z,998.3
2018-09-04T09:15:15.407Z,998.3
2018-09-04T09:18:15.182Z,998.3
2018-09-04T09:21:15.683Z,998.2
2018-09-04T09:24:15.240Z,998.2
2018-09-04T09:27:15.767Z,998.2
2018-09-04T09:30:15.526Z,998.2
2018-09-04T09:33:15.182Z,998.2
2018-09-04T09:36:15.924Z,998.2
2018-09-04T09:39:15.885Z,998.2
2018-09-04T09:42:15.981Z,998.1
2018-09-04T09:45:15.720Z,998.1
2018-09-04T09:48:15.346Z,998.1
2018-09-04T09:51:15.851Z,998.1
2018-09-04T09:54:15.851Z,998.1
2018-09-04T09:57:15.945Z,998.1
2018-09-04T10:00:15.907Z,998.1
2018-09-04T10:03:15.222Z,998.0
2018-09-04T10:06:15.723Z,998.0
2018-09-04T10:09:15.772Z,998.0
2018-09-04T10:12:16.204Z,998.1
2018-09-04T10:15:15.853Z,998.0
2018-09-04T10:18:15.416Z,998.0
2018-09-04T10:21:16.239Z,998.1
2018-09-04T10:24:16.110Z,998.0
2018-09-04T10:27:15.629Z,998.0
2018-09-04T10:30:15.633Z,998.0
2018-09-04T10:33:16.286Z,997.9
2018-09-04T10:36:16.013Z,997.9
2018-09-04T10:39:15.675Z,997.8
2018-09-04T10:42:15.859Z,997.8
2018-09-04T10:45:15.407Z,997.8
2018-09-04T10:48:16.294Z,997.8
2018-09-04T10:51:15.635Z,997.8
2018-09-04T10:54:15.322Z,997.8
2018-09-04T10:57:15.438Z,997.8
2018-09-04T11:00:15.981Z,997.8
2018-09-04T11:03:15.555Z,997.8
2018-09-04T11:06:15.509Z,997.8
2018-09-04T11:09:16.332Z,997.7
2018-09-04T11:12:16.086Z,997.7
2018-09-04T11:15:15.658Z,997.7
2018-09-04T11:18:15.388Z,997.7
2018-09-04T11:21:15.883Z,997.6
2018-09-04T11:24:15.574Z,997.6
2018-09-04T11:27:16.190Z,997.6
2018-09-04T11:30:15.696Z,997.6
2018-09-04T11:33:16.257Z,997.6
2018-09-04T11:36:16.016Z,997.6
2018-09-04T11:39:15.766Z,997.6
2018-09-04T11:42:15.439Z,997.6
2018-09-04T11:45:16.160Z,997.5
2018-09-04T11:48:16.029Z,997.5
2018-09-04T11:51:15.859Z,997.5
2018-09-04T11:54:15.548Z,997.5
2018-09-04T11:57:16.120Z,997.5
2018-09-04T12:00:15.928Z,997.5
2018-09-04T12:03:15.718Z,997.5
2018-09-04T12:06:15.422Z,997.5
2018-09-04T12:09:15.860Z,997.5
2018-09-04T12:12:15.425Z,997.6
2018-09-04T12:15:15.116Z,997.5
2018-09-04T12:18:15.279Z,997.5
2018-09-04T12:21:15.413Z,997.5
2018-09-04T12:24:15.545Z,997.4
2018-09-04T12:27:15.463Z,997.4
2018-09-04T12:30:15.404Z,997.4
2018-09-04T12:33:15.271Z,997.4
2018-09-04T12:36:15.155Z,997.4
2018-09-04T12:39:15.064Z,997.4
2018-09-04T12:42:15.900Z,997.3
2018-09-04T12:45:15.850Z,997.3
2018-09-04T12:48:15.972Z,997.3
2018-09-04T12:51:15.598Z,997.3
2018-09-04T12:54:15.831Z,997.4
2018-09-04T12:57:15.810Z,997.3
2018-09-04T13:00:15.805Z,997.3
2018-09-04T13:03:15.625Z,997.3
2018-09-04T13:06:15.346Z,997.3
2018-09-04T13:09:15.566Z,997.4
2018-09-04T13:12:15.521Z,997.3
2018-09-04T13:15:15.737Z,997.3
2018-09-04T13:18:15.949Z,997.2
2018-09-04T13:21:15.325Z,997.3
2018-09-04T13:24:15.397Z,997.3
2018-09-04T13:27:15.162Z,997.3
2018-09-04T13:30:15.708Z,997.3
2018-09-04T13:33:15.559Z,997.3
2018-09-04T13:36:15.174Z,997.3
2018-09-04T13:39:16.104Z,997.2
2018-09-04T13:42:15.094Z,997.2
2018-09-04T13:45:15.791Z,997.2
2018-09-04T13:48:16.134Z,997.1
2018-09-04T13:51:15.313Z,997.2
2018-09-04T13:54:15.200Z,997.2
2018-09-04T13:57:15.681Z,997.1
2018-09-04T14:00:15.787Z,997.1
2018-09-04T14:03:15.300Z,997.1
2018-09-04T14:06:15.347Z,997.0
2018-09-04T14:09:15.100Z,997.0
2018-09-04T14:12:15.948Z,997.0
2018-09-04T14:15:15.941Z,997.0
2018-09-04T14:18:15.054Z,997.0
2018-09-04T14:21:15.119Z,997.0
2018-09-04T14:24:15.857Z,997.0
2018-09-04T14:27:15.982Z,997.0
2018-09-04T14:30:16.349Z,997.1
2018-09-04T14:33:15.523Z,997.0
2018-09-04T14:36:15.534Z,997.0
2018-09-04T14:39:15.697Z,997.0
2018-09-04T14:42:15.506Z,997.1
2018-09-04T14:45:15.615Z,997.1
2018-09-04T14:48:15.578Z,997.0
2018-09-04T14:51:15.316Z,997.0
2018-09-04T14:54:15.394Z,997.0
2018-09-04T14:57:15.152Z,997.0
2018-09-04T15:00:15.694Z,997.0
2018-09-04T15:03:15.592Z,997.0
2018-09-04T15:06:15.570Z,997.0
2018-09-04T15:09:15.575Z,996.9
2018-09-04T15:12:15.907Z,996.9
2018-09-04T15:15:15.781Z,996.9
2018-09-04T15:18:15.564Z,996.9
2018-09-04T15:21:15.722Z,996.9
2018-09-04T15:24:15.608Z,996.9
2018-09-04T15:27:15.595Z,996.9
2018-09-04T15:30:15.416Z,996.9
2018-09-04T15:33:15.408Z,997.0
2018-09-04T15:36:15.393Z,997.0
2018-09-04T15:39:15.143Z,997.0
2018-09-04T15:42:15.895Z,997.0
2018-09-04T15:45:15.592Z,997.1
2018-09-04T15:48:15.603Z,997.1
2018-09-04T15:51:15.892Z,997.1
2018-09-04T15:54:15.896Z,997.1
2018-09-04T15:57:15.750Z,997.1
2018-09-04T16:00:15.545Z,997.1
2018-09-04T16:03:15.269Z,997.1
2018-09-04T16:06:15.051Z,997.0
2018-09-04T16:09:15.085Z,997.0
2018-09-04T16:12:15.248Z,997.0
2018-09-04T16:15:15.432Z,997.0
2018-09-04T16:18:15.500Z,997.0
2018-09-04T16:21:15.265Z,997.0
2018-09-04T16:24:16.021Z,997.0
2018-09-04T16:27:15.809Z,997.0
2018-09-04T16:30:15.837Z,997.0
2018-09-04T16:33:16.060Z,997.0
2018-09-04T16:36:15.054Z,997.0
2018-09-04T16:39:15.867Z,997.0
2018-09-04T16:42:15.812Z,997.0
2018-09-04T16:45:15.601Z,997.0
2018-09-04T16:48:15.369Z,997.0
2018-09-04T16:51:15.174Z,997.0
2018-09-04T16:54:15.467Z,997.0
2018-09-04T16:57:15.250Z,997.1
2018-09-04T17:00:15.140Z,997.1
2018-09-04T17:03:15.155Z,997.1
2018-09-04T17:06:16.115Z,997.2
2018-09-04T17:09:15.938Z,997.1
2018-09-04T17:12:15.844Z,997.2
2018-09-04T17:15:15.098Z,997.2
2018-09-04T17:18:15.831Z,997.2
2018-09-04T17:21:15.531Z,997.2
2018-09-04T17:24:15.603Z,997.2
2018-09-04T17:27:15.485Z,997.2
2018-09-04T17:30:15.383Z,997.3
2018-09-04T17:33:15.171Z,997.3
2018-09-04T17:36:16.013Z,997.3
2018-09-04T17:39:15.467Z,997.3
2018-09-04T17:42:15.229Z,997.4
2018-09-04T17:45:15.879Z,997.5
2018-09-04T17:48:15.505Z,997.4
2018-09-04T17:51:15.299Z,997.5
2018-09-04T17:54:15.115Z,997.5
2018-09-04T17:57:15.790Z,997.5
2018-09-04T18:00:15.702Z,997.5
2018-09-04T18:03:15.525Z,997.5
2018-09-04T18:06:15.250Z,997.5
2018-09-04T18:09:15.152Z,997.6
2018-09-04T18:12:15.913Z,997.6
2018-09-04T18:15:15.778Z,997.6
2018-09-04T18:18:15.709Z,997.7
2018-09-04T18:21:15.273Z,997.7
2018-09-04T18:24:15.360Z,997.7
2018-09-04T18:27:15.976Z,997.7
2018-09-04T18:30:15.644Z,997.9
2018-09-04T18:33:15.399Z,998.0
2018-09-04T18:36:15.272Z,998.0
2018-09-04T18:39:15.686Z,998.1
2018-09-04T18:42:15.386Z,998.1
2018-09-04T18:45:15.051Z,998.1
2018-09-04T18:48:16.018Z,998.2
2018-09-04T18:51:15.288Z,998.2
2018-09-04T18:54:15.187Z,998.2
2018-09-04T18:57:15.786Z,998.2
2018-09-04T19:00:15.561Z,998.2
2018-09-04T19:03:15.490Z,998.3
2018-09-04T19:06:15.282Z,998.3
2018-09-04T19:09:15.026Z,998.3
2018-09-04T19:12:15.777Z,998.3
2018-09-04T19:15:15.577Z,998.3
2018-09-04T19:18:15.445Z,998.3
2018-09-04T19:21:15.176Z,998.4
2018-09-04T19:24:15.409Z,998.4
2018-09-04T19:27:15.299Z,998.4
2018-09-04T19:30:15.117Z,998.3
2018-09-04T19:33:15.980Z,998.4
2018-09-04T19:36:15.842Z,998.4
2018-09-04T19:39:15.654Z,998.4
2018-09-04T19:42:15.515Z,998.3
2018-09-04T19:45:15.453Z,998.3
2018-09-04T19:48:15.612Z,998.4
2018-09-04T19:51:15.638Z,998.3
2018-09-04T19:54:15.371Z,998.3
2018-09-04T19:57:14.936Z,998.3
2018-09-04T20:00:15.779Z,998.3
2018-09-04T20:03:15.595Z,998.3
2018-09-04T20:06:15.307Z,998.3
2018-09-04T20:09:15.215Z,998.4
2018-09-04T20:12:15.924Z,998.4
2018-09-04T20:15:15.872Z,998.4
2018-09-04T20:18:16.010Z,998.4
2018-09-04T20:21:15.736Z,998.4
2018-09-04T20:24:15.581Z,998.4
2018-09-04T20:27:15.273Z,998.4
2018-09-04T20:30:15.912Z,998.4
2018-09-04T20:33:15.664Z,998.4
2018-09-04T20:36:15.624Z,998.4
2018-09-04T20:39:15.816Z,998.4
2018-09-04T20:42:15.576Z,998.3
2018-09-04T20:45:15.163Z,998.3
2018-09-04T20:48:15.715Z,998.4
2018-09-04T20:51:15.406Z,998.4
2018-09-04T20:54:15.020Z,998.4
2018-09-04T20:57:15.908Z,998.4
2018-09-04T21:00:15.416Z,998.4
2018-09-04T21:03:15.629Z,998.5
2018-09-04T21:06:15.543Z,998.5
2018-09-04T21:09:15.879Z,998.5
2018-09-04T21:12:15.471Z,998.5
2018-09-04T21:15:15.556Z,998.5
2018-09-04T21:18:16.023Z,998.5
2018-09-04T21:21:15.098Z,998.5
2018-09-04T21:24:15.233Z,998.5
2018-09-04T21:27:15.222Z,998.5
2018-09-04T21:30:15.307Z,998.5
2018-09-04T21:33:15.265Z,998.5
2018-09-04T21:36:15.863Z,998.5
2018-09-04T21:39:15.843Z,998.5
2018-09-04T21:42:15.761Z,998.5
2018-09-04T21:45:15.711Z,998.5
2018-09-04T21:48:15.368Z,998.5
2018-09-04T21:51:15.176Z,998.5
2018-09-04T21:54:15.868Z,998.6
2018-09-04T21:57:15.946Z,998.6
2018-09-04T22:00:15.908Z,998.5
2018-09-04T22:03:15.056Z,998.6
2018-09-04T22:06:15.933Z,998.5
2018-09-04T22:09:14.998Z,998.5
2018-09-04T22:12:15.769Z,998.6
2018-09-04T22:15:14.978Z,998.5
2018-09-04T22:18:15.191Z,998.4
2018-09-04T22:21:15.146Z,998.5
2018-09-04T22:24:16.096Z,998.5
2018-09-04T22:27:15.439Z,998.5
2018-09-04T22:30:15.075Z,998.6
2018-09-04T22:33:15.088Z,998.5
2018-09-04T22:36:15.750Z,998.5
2018-09-04T22:39:15.644Z,998.5
2018-09-04T22:42:15.320Z,998.5
2018-09-04T22:45:15.237Z,998.5
2018-09-04T22:48:16.049Z,998.5
2018-09-04T22:51:14.996Z,998.6
2018-09-04T22:54:15.289Z,998.6
2018-09-04T22:57:15.861Z,998.6
2018-09-04T23:00:16.162Z,998.5
2018-09-04T23:03:15.181Z,998.5
2018-09-04T23:06:15.877Z,998.5
2018-09-04T23:09:15.491Z,998.5
2018-09-04T23:12:15.169Z,998.6
2018-09-04T23:15:15.456Z,998.6
2018-09-04T23:18:15.163Z,998.6
2018-09-04T23:21:15.709Z,998.6
2018-09-04T23:24:15.545Z,998.6
2018-09-04T23:27:15.126Z,998.6
2018-09-04T23:30:15.675Z,998.6
2018-09-04T23:33:15.347Z,998.6
2018-09-04T23:36:15.082Z,998.6
2018-09-04T23:39:15.603Z,998.6
2018-09-04T23:42:15.484Z,998.5
2018-09-04T23:45:15.132Z,998.5
2018-09-04T23:48:15.660Z,998.5
2018-09-04T23:51:15.300Z,998.5
2018-09-04T23:54:15.052Z,998.5
2018-09-04T23:57:15.649Z,998.4
